Time;durP1;ratioP1;P1;durP2;ratioP2;P2;SDS_P1;SDS_P2;PMS_P1;PMS_P2;Temp;Humidity;BMP_temperature;BMP_pressure;BME280_temperature;BME280_humidity;BME280_pressure;Samples;Min_cycle;Max_cycle;Signal;HPM_P1;HPM_P2
2022/09/10 00:01:10;;;;;;;4.23;1.83;;;14.40;99.90;15.80;96681.00;;;;5026902;28;20205;-72
2022/09/10 00:04:00;;;;;;;1.67;1.33;;;14.40;99.90;15.70;96688.00;;;;5027285;28;20712;-73
2022/09/10 00:06:49;;;;;;;1.40;1.30;;;14.40;99.90;15.80;96682.00;;;;5029179;28;20221;-73
2022/09/10 00:09:40;;;;;;;3.20;1.37;;;14.40;99.90;15.80;96680.00;;;;5021450;28;20224;-72
2022/09/10 00:12:28;;;;;;;1.30;1.20;;;14.40;99.90;15.70;96678.00;;;;5020569;28;20204;-72
2022/09/10 00:15:18;;;;;;;3.33;1.30;;;14.40;99.90;15.70;96674.00;;;;5029883;28;20197;-73
2022/09/10 00:18:08;;;;;;;2.60;1.27;;;14.40;99.90;15.60;96672.00;;;;5026815;28;20225;-73
2022/09/10 00:20:59;;;;;;;1.30;1.20;;;14.40;99.90;15.80;96673.00;;;;5028316;28;20198;-73
2022/09/10 00:23:48;;;;;;;3.03;1.20;;;14.40;99.90;15.80;96672.00;;;;5028523;28;20204;-73
2022/09/10 00:26:39;;;;;;;3.67;1.63;;;14.40;99.90;15.80;96667.00;;;;5028180;28;20829;-73
2022/09/10 00:29:27;;;;;;;1.63;1.53;;;14.40;99.90;15.90;96657.00;;;;5019133;28;20202;-73
2022/09/10 00:32:16;;;;;;;1.50;1.37;;;14.40;99.90;15.90;96651.00;;;;5025915;28;20252;-73
2022/09/10 00:35:07;;;;;;;3.17;1.37;;;14.40;99.90;15.90;96640.00;;;;5027903;28;20291;-73
2022/09/10 00:37:55;;;;;;;4.83;1.43;;;14.40;99.90;16.00;96650.00;;;;5028260;28;20283;-73
2022/09/10 00:40:45;;;;;;;2.90;1.40;;;14.50;99.90;15.70;96654.00;;;;5027536;28;20661;-73
2022/09/10 00:43:52;;;;;;;3.70;1.17;;;14.50;99.90;15.60;96659.00;;;;5028295;28;20209;-71
2022/09/10 00:46:44;;;;;;;2.30;1.63;;;14.40;99.90;15.50;96657.00;;;;5028535;28;20221;-71
2022/09/10 00:49:38;;;;;;;2.50;1.20;;;14.30;99.90;15.70;96650.00;;;;5028966;28;20641;-73
2022/09/10 00:52:28;;;;;;;2.17;1.13;;;14.30;99.90;15.60;96653.00;;;;5024328;28;20683;-73
2022/09/10 00:55:17;;;;;;;7.53;1.60;;;14.30;99.90;15.80;96657.00;;;;5027541;28;20677;-73
2022/09/10 00:58:10;;;;;;;2.50;1.50;;;14.30;99.90;15.80;96657.00;;;;5026044;28;21028;-73
2022/09/10 01:01:02;;;;;;;1.67;1.50;;;14.30;99.90;15.90;96656.00;;;;5027233;28;20193;-73
2022/09/10 01:03:52;;;;;;;1.40;1.30;;;14.40;99.90;15.80;96661.00;;;;5022319;28;20216;-72
2022/09/10 01:06:44;;;;;;;1.60;1.50;;;14.40;99.90;15.80;96650.00;;;;5020196;28;20240;-73
2022/09/10 01:09:33;;;;;;;2.83;1.50;;;14.40;99.90;15.60;96636.00;;;;5028307;28;20208;-73
2022/09/10 01:12:43;;;;;;;3.63;1.60;;;14.30;99.90;15.80;96649.00;;;;5026649;28;20205;-73
2022/09/10 01:15:39;;;;;;;1.43;1.33;;;14.30;99.90;15.80;96643.00;;;;5019165;28;20201;-73
2022/09/10 01:18:41;;;;;;;1.37;1.07;;;14.30;99.90;15.50;96644.00;;;;5027267;28;20209;-72
2022/09/10 01:21:34;;;;;;;1.73;1.20;;;14.30;99.90;15.30;96643.00;;;;5017842;28;20208;-73
2022/09/10 01:24:53;;;;;;;3.50;2.00;;;14.30;99.90;15.30;96640.00;;;;5026845;28;20200;-73
2022/09/10 01:27:46;;;;;;;5.83;1.53;;;14.20;99.90;15.50;96641.00;;;;5027169;28;20283;-73
2022/09/10 01:30:41;;;;;;;4.90;1.27;;;14.10;99.90;15.30;96639.00;;;;5027632;28;20197;-73
2022/09/10 01:33:36;;;;;;;1.30;1.20;;;14.10;99.90;15.20;96640.00;;;;5026058;28;20202;-72
2022/09/10 01:39:14;;;;;;;4.10;1.80;;;14.00;99.90;15.20;96656.00;;;;4989353;28;20246;-86
2022/09/10 01:42:03;;;;;;;3.93;1.37;;;14.00;99.90;15.30;96652.00;;;;4991373;28;20199;-86
2022/09/10 01:44:55;;;;;;;3.43;1.37;;;14.00;99.90;15.40;96650.00;;;;4990827;28;20919;-86
2022/09/10 01:48:48;;;;;;;2.83;1.13;;;14.00;99.90;15.50;96650.00;;;;4990603;28;20668;-85
2022/09/10 01:51:55;;;;;;;2.00;1.37;;;14.00;99.90;15.50;96664.00;;;;4977404;28;20257;-86
2022/09/10 01:55:00;;;;;;;3.13;1.17;;;14.10;99.90;15.60;96660.00;;;;4981719;28;20195;-86
2022/09/10 01:57:57;;;;;;;2.33;1.10;;;14.10;99.90;15.60;96669.00;;;;4986236;28;20244;-86
2022/09/10 02:00:55;;;;;;;2.03;0.93;;;14.10;99.90;15.70;96660.00;;;;4982949;28;20195;-86
2022/09/10 02:03:48;;;;;;;1.00;1.00;;;14.10;99.90;15.60;96654.00;;;;4984134;28;20206;-86
2022/09/10 02:06:41;;;;;;;3.80;2.43;;;14.20;99.90;15.50;96659.00;;;;4982363;28;20680;-86
2022/09/10 02:09:30;;;;;;;10.60;2.03;;;14.20;99.90;15.60;96659.00;;;;4990694;28;20688;-86
2022/09/10 02:12:21;;;;;;;1.33;1.20;;;14.20;99.90;15.50;96650.00;;;;4989369;28;20218;-85
2022/09/10 02:15:12;;;;;;;2.73;1.13;;;14.10;99.90;15.20;96649.00;;;;4992073;28;20201;-85
2022/09/10 02:18:02;;;;;;;2.50;1.63;;;14.10;99.90;15.30;96651.00;;;;4990696;28;20210;-86
2022/09/10 02:20:55;;;;;;;1.40;1.07;;;14.10;99.90;15.30;96652.00;;;;4993755;28;20205;-86
2022/09/10 02:23:48;;;;;;;1.80;1.10;;;14.10;99.90;15.20;96653.00;;;;4988917;28;20249;-85
2022/09/10 02:26:41;;;;;;;3.00;1.10;;;14.00;99.90;15.00;96644.00;;;;4992398;28;20206;-86
2022/09/10 02:29:30;;;;;;;1.80;1.40;;;14.00;99.90;14.80;96650.00;;;;5000425;28;20272;-86
2022/09/10 02:32:18;;;;;;;2.30;1.10;;;13.90;99.90;15.00;96646.00;;;;4985647;28;20351;-85
2022/09/10 02:35:09;;;;;;;1.50;1.40;;;13.90;99.90;15.20;96638.00;;;;4993719;28;20210;-85
2022/09/10 02:37:58;;;;;;;2.90;1.37;;;13.90;99.90;14.90;96640.00;;;;4989218;28;20235;-85
2022/09/10 02:40:48;;;;;;;2.03;1.30;;;13.80;99.90;14.90;96650.00;;;;4993662;28;20198;-85
2022/09/10 02:43:37;;;;;;;3.53;1.17;;;13.80;99.90;15.00;96653.00;;;;4991841;28;20871;-85
2022/09/10 02:46:25;;;;;;;1.07;1.03;;;13.80;99.90;15.10;96652.00;;;;4995706;28;20206;-86
2022/09/10 02:49:14;;;;;;;1.83;1.60;;;13.80;99.90;15.20;96637.00;;;;4993576;28;20223;-86
2022/09/10 02:52:05;;;;;;;1.97;1.33;;;13.80;99.90;15.40;96639.00;;;;4992311;28;20199;-86
2022/09/10 02:54:54;;;;;;;3.07;1.43;;;13.80;99.90;15.40;96638.00;;;;4987556;28;20589;-87
2022/09/10 02:57:44;;;;;;;4.43;1.20;;;13.90;99.90;15.40;96647.00;;;;4990835;28;20715;-86
2022/09/10 03:00:33;;;;;;;2.07;1.07;;;13.90;99.90;15.40;96651.00;;;;4987117;28;20214;-86
2022/09/10 03:03:22;;;;;;;1.07;0.90;;;13.90;99.90;15.30;96647.00;;;;4994035;28;20194;-85
2022/09/10 03:06:11;;;;;;;1.90;1.40;;;13.90;99.90;15.10;96642.00;;;;4997756;28;20199;-85
2022/09/10 03:09:01;;;;;;;3.13;1.37;;;13.90;99.90;14.90;96653.00;;;;4998051;28;20230;-85
2022/09/10 03:11:50;;;;;;;2.43;1.40;;;13.80;99.90;15.10;96657.00;;;;4996160;28;20234;-86
2022/09/10 03:14:39;;;;;;;1.10;1.10;;;13.80;99.90;15.10;96664.00;;;;4997365;28;20206;-85
2022/09/10 03:17:28;;;;;;;2.60;1.10;;;13.80;99.90;15.20;96656.00;;;;4996022;28;20222;-86
2022/09/10 03:20:17;;;;;;;1.97;1.30;;;13.80;99.90;15.30;96660.00;;;;4994780;28;20218;-87
2022/09/10 03:23:06;;;;;;;2.47;1.30;;;13.80;99.90;15.40;96642.00;;;;4985867;28;20205;-86
2022/09/10 03:25:56;;;;;;;1.00;0.97;;;13.80;99.90;15.40;96638.00;;;;4996810;28;20289;-85
2022/09/10 03:28:45;;;;;;;2.43;1.20;;;13.90;99.90;15.40;96630.00;;;;4994480;28;20226;-85
2022/09/10 03:31:34;;;;;;;2.70;1.10;;;13.90;99.90;15.40;96625.00;;;;4984773;28;20199;-85
2022/09/10 03:34:23;;;;;;;0.90;0.90;;;13.90;99.90;15.20;96619.00;;;;4992529;28;20203;-84
2022/09/10 03:37:13;;;;;;;1.10;1.00;;;13.90;99.90;15.20;96641.00;;;;4992386;28;20221;-85
2022/09/10 03:40:02;;;;;;;1.33;1.23;;;13.80;99.90;15.20;96633.00;;;;4990542;28;20714;-85
2022/09/10 03:42:52;;;;;;;4.20;1.17;;;13.80;99.90;15.10;96637.00;;;;4988867;28;20294;-85
2022/09/10 03:45:41;;;;;;;1.30;0.80;;;13.80;99.90;15.20;96626.00;;;;4994530;28;20205;-85
2022/09/10 03:48:30;;;;;;;2.20;1.03;;;13.80;99.90;15.20;96626.00;;;;4991102;28;20226;-85
2022/09/10 03:51:19;;;;;;;5.77;1.10;;;13.80;99.90;14.80;96631.00;;;;4991729;28;20206;-86
2022/09/10 03:54:07;;;;;;;4.53;1.10;;;13.70;99.90;14.80;96651.00;;;;4991368;28;20198;-85
2022/09/10 03:56:56;;;;;;;1.23;1.00;;;13.70;99.90;14.60;96642.00;;;;4992387;28;20198;-85
2022/09/10 03:59:46;;;;;;;3.03;0.93;;;13.60;99.90;14.60;96650.00;;;;4992395;28;20227;-85
2022/09/10 04:02:37;;;;;;;1.10;1.00;;;13.50;99.90;14.70;96640.00;;;;4984575;28;20565;-85
2022/09/10 04:05:29;;;;;;;0.83;0.77;;;13.50;99.90;14.80;96633.00;;;;4991301;28;20252;-84
2022/09/10 04:08:17;;;;;;;1.07;1.07;;;13.40;99.90;14.80;96637.00;;;;4992207;28;20234;-83
2022/09/10 04:11:06;;;;;;;3.77;1.33;;;13.40;99.90;14.80;96630.00;;;;4992010;28;20574;-83
2022/09/10 04:13:55;;;;;;;8.10;1.10;;;13.40;99.90;14.70;96630.00;;;;4992640;28;20218;-83
2022/09/10 04:16:45;;;;;;;1.23;1.00;;;13.40;99.90;14.40;96636.00;;;;4992265;28;20198;-84
2022/09/10 04:19:34;;;;;;;1.93;1.07;;;13.30;99.90;14.00;96633.00;;;;4992029;28;20234;-84
2022/09/10 04:22:23;;;;;;;1.50;1.20;;;13.20;99.90;14.20;96641.00;;;;4992169;28;20194;-84
2022/09/10 04:25:12;;;;;;;1.40;1.30;;;13.10;99.90;14.20;96650.00;;;;4992876;28;20245;-83
2022/09/10 04:28:01;;;;;;;1.50;1.37;;;13.10;99.90;14.40;96648.00;;;;4992620;28;20950;-84
2022/09/10 04:30:50;;;;;;;2.57;1.20;;;13.00;99.90;14.20;96659.00;;;;4992087;28;20209;-84
2022/09/10 04:33:41;;;;;;;0.93;0.90;;;13.00;99.90;14.20;96658.00;;;;4992457;28;20206;-85
2022/09/10 04:36:30;;;;;;;8.13;2.27;;;13.00;99.90;14.10;96657.00;;;;4992620;28;20214;-82
2022/09/10 04:39:18;;;;;;;1.50;1.40;;;12.90;99.90;14.00;96660.00;;;;4991869;28;20309;-84
2022/09/10 04:42:08;;;;;;;5.60;1.10;;;12.90;99.90;13.70;96656.00;;;;4991555;28;20664;-84
2022/09/10 04:44:57;;;;;;;6.13;1.20;;;12.80;99.90;13.50;96655.00;;;;4992995;28;20235;-84
2022/09/10 04:47:46;;;;;;;3.67;1.27;;;12.60;99.90;13.50;96650.00;;;;4989622;28;20199;-84
2022/09/10 04:50:39;;;;;;;2.87;1.17;;;12.50;99.90;13.30;96662.00;;;;4992330;28;20619;-84
2022/09/10 04:53:34;;;;;;;2.33;1.10;;;12.50;99.90;13.50;96666.00;;;;4992785;28;20230;-85
2022/09/10 04:56:22;;;;;;;3.70;1.47;;;12.40;99.90;13.70;96672.00;;;;4992825;28;20252;-83
2022/09/10 04:59:11;;;;;;;1.10;0.90;;;12.40;99.90;13.70;96672.00;;;;4993032;28;20278;-84
2022/09/10 05:02:00;;;;;;;1.20;1.13;;;12.40;99.90;13.80;96673.00;;;;4992504;28;20218;-86
2022/09/10 05:04:49;;;;;;;8.47;1.23;;;12.40;99.90;13.90;96671.00;;;;4995206;28;20701;-85
2022/09/10 05:07:39;;;;;;;2.50;1.30;;;12.50;99.90;13.80;96673.00;;;;4994942;28;20230;-86
2022/09/10 05:10:28;;;;;;;3.40;1.50;;;12.50;99.90;13.60;96672.00;;;;4994955;28;20222;-86
2022/09/10 05:13:17;;;;;;;2.30;1.30;;;12.50;99.90;13.50;96685.00;;;;4994401;28;20235;-85
2022/09/10 05:16:07;;;;;;;6.53;1.97;;;12.50;99.90;13.40;96678.00;;;;4992811;28;20273;-86
2022/09/10 05:18:56;;;;;;;2.30;2.10;;;12.40;99.90;13.80;96682.00;;;;4993875;28;20238;-85
2022/09/10 05:21:44;;;;;;;1.20;1.10;;;12.50;99.90;13.70;96682.00;;;;4976405;28;20648;-84
2022/09/10 05:24:34;;;;;;;2.83;0.90;;;12.50;99.90;13.90;96684.00;;;;4975671;28;20254;-84
2022/09/10 05:27:23;;;;;;;0.90;0.90;;;12.50;99.90;14.10;96681.00;;;;4988810;28;20698;-84
2022/09/10 05:30:12;;;;;;;1.80;1.30;;;12.60;99.90;14.00;96690.00;;;;4992977;28;20696;-85
2022/09/10 05:33:01;;;;;;;1.60;1.30;;;12.70;99.90;13.70;96693.00;;;;4991118;28;20203;-84
2022/09/10 05:35:51;;;;;;;3.17;1.30;;;12.70;99.90;13.70;96697.00;;;;4994924;28;20222;-85
2022/09/10 05:38:40;;;;;;;2.67;1.10;;;12.60;99.90;13.60;96701.00;;;;4993807;28;20249;-85
2022/09/10 05:41:31;;;;;;;3.03;0.90;;;12.60;99.90;13.50;96700.00;;;;4995093;28;20203;-86
2022/09/10 05:44:19;;;;;;;1.73;1.27;;;12.60;99.90;13.80;96703.00;;;;4996526;28;20864;-83
2022/09/10 05:47:08;;;;;;;5.67;1.30;;;12.60;99.90;13.70;96711.00;;;;4996921;28;20194;-85
2022/09/10 05:49:57;;;;;;;1.20;1.10;;;12.60;99.90;13.40;96704.00;;;;4994328;28;20230;-85
2022/09/10 05:52:46;;;;;;;1.40;1.30;;;12.50;99.90;13.50;96707.00;;;;4991951;28;20703;-85
2022/09/10 05:55:35;;;;;;;1.17;0.97;;;12.50;99.90;13.80;96711.00;;;;4994523;28;20207;-84
2022/09/10 05:58:26;;;;;;;5.87;1.30;;;12.60;99.90;13.90;96698.00;;;;4994036;28;20227;-85
2022/09/10 06:01:15;;;;;;;2.50;0.80;;;12.60;99.90;14.30;96702.00;;;;4984446;28;20702;-85
2022/09/10 06:04:04;;;;;;;0.90;0.67;;;12.80;99.90;14.50;96701.00;;;;4994692;28;20581;-85
2022/09/10 06:06:53;;;;;;;2.10;1.00;;;12.90;99.90;14.70;96696.00;;;;4995067;28;20199;-84
2022/09/10 06:09:42;;;;;;;3.63;0.70;;;13.10;99.90;14.70;96693.00;;;;4990245;28;20259;-85
2022/09/10 06:12:30;;;;;;;1.53;0.77;;;13.20;99.90;14.70;96700.00;;;;4993877;28;20269;-84
2022/09/10 06:15:21;;;;;;;1.70;0.67;;;13.30;99.90;14.60;96708.00;;;;4991312;28;20191;-85
2022/09/10 06:18:10;;;;;;;0.67;0.67;;;13.40;99.90;14.30;96701.00;;;;4990121;28;20212;-84
2022/09/10 06:21:04;;;;;;;0.90;0.90;;;13.40;99.90;14.60;96699.00;;;;4994384;28;20719;-84
2022/09/10 06:23:54;;;;;;;3.07;0.80;;;13.40;99.90;14.90;96708.00;;;;4990657;28;20608;-85
2022/09/10 06:26:43;;;;;;;14.00;2.80;;;13.50;99.90;15.40;96713.00;;;;4984925;28;20213;-85
2022/09/10 06:29:31;;;;;;;0.90;0.70;;;13.70;99.90;15.70;96701.00;;;;4991847;28;20222;-85
2022/09/10 06:32:22;;;;;;;9.33;1.27;;;13.80;99.90;16.00;96692.00;;;;4995932;28;20735;-85
2022/09/10 06:35:10;;;;;;;2.20;1.07;;;14.10;99.90;16.20;96695.00;;;;4993945;28;20286;-84
2022/09/10 06:37:59;;;;;;;3.00;1.00;;;14.30;99.90;16.00;96701.00;;;;4996131;28;20277;-85
2022/09/10 06:40:53;;;;;;;1.67;1.03;;;14.50;99.90;15.40;96703.00;;;;4995546;28;20312;-85
2022/09/10 06:43:42;;;;;;;4.23;1.10;;;14.40;99.90;15.60;96697.00;;;;5009357;28;20198;-85
2022/09/10 06:46:31;;;;;;;1.07;0.97;;;14.40;99.90;15.60;96695.00;;;;5012783;28;20210;-85
2022/09/10 06:49:41;;;;;;;2.77;1.20;;;14.50;99.90;15.40;96701.00;;;;4999853;28;20307;-86
2022/09/10 06:52:30;;;;;;;3.50;1.10;;;14.40;99.90;15.60;96687.00;;;;4996954;28;20600;-85
2022/09/10 06:55:19;;;;;;;1.60;1.50;;;14.40;99.90;16.00;96700.00;;;;4997787;28;20198;-85
2022/09/10 06:58:08;;;;;;;1.97;1.77;;;14.50;99.90;16.40;96693.00;;;;5001258;28;20202;-85
2022/09/10 07:00:57;;;;;;;2.83;2.10;;;14.70;99.90;17.00;96694.00;;;;4993777;28;20222;-85
2022/09/10 07:03:46;;;;;;;4.13;2.00;;;14.90;99.90;17.30;96701.00;;;;5001221;28;20203;-85
2022/09/10 07:06:37;;;;;;;2.53;2.33;;;15.20;99.90;17.50;96692.00;;;;4996856;28;20559;-85
2022/09/10 07:09:26;;;;;;;2.07;1.97;;;15.40;99.90;17.60;96701.00;;;;4998007;28;20229;-84
2022/09/10 07:12:15;;;;;;;3.77;2.27;;;15.60;99.90;17.80;96704.00;;;;5000146;28;20205;-85
2022/09/10 07:15:04;;;;;;;3.07;2.63;;;15.80;99.90;18.00;96710.00;;;;4996180;28;20199;-83
2022/09/10 07:17:53;;;;;;;2.07;1.87;;;16.00;99.90;18.10;96721.00;;;;4994884;28;20199;-83
2022/09/10 07:20:43;;;;;;;4.17;2.27;;;16.20;99.90;18.10;96718.00;;;;4995386;28;20242;-84
2022/09/10 07:23:33;;;;;;;2.77;2.13;;;16.30;99.90;18.50;96708.00;;;;4999440;28;20218;-84
2022/09/10 07:26:22;;;;;;;1.60;1.20;;;16.40;99.90;18.50;96714.00;;;;5010324;28;20234;-86
2022/09/10 07:29:11;;;;;;;2.70;1.40;;;16.60;99.90;18.50;96707.00;;;;5001465;28;20699;-84
2022/09/10 07:32:02;;;;;;;1.83;1.40;;;16.60;99.90;18.80;96701.00;;;;5009255;28;20562;-85
2022/09/10 07:34:51;;;;;;;1.97;1.20;;;16.80;99.90;19.00;96708.00;;;;4983940;28;20214;-85
2022/09/10 07:37:40;;;;;;;1.43;1.33;;;17.00;99.90;19.30;96698.00;;;;4991747;28;20214;-84
2022/09/10 07:40:30;;;;;;;3.77;1.73;;;17.20;99.90;19.60;96696.00;;;;4997430;28;20223;-83
2022/09/10 07:43:19;;;;;;;6.33;1.53;;;17.40;99.90;19.80;96692.00;;;;4993882;28;20209;-84
2022/09/10 07:46:08;;;;;;;1.40;1.20;;;17.60;99.90;20.10;96696.00;;;;4993830;28;20199;-85
2022/09/10 07:49:00;;;;;;;4.90;1.60;;;17.80;99.90;19.70;96694.00;;;;4990727;28;20219;-84
2022/09/10 07:51:53;;;;;;;2.30;1.40;;;18.00;99.90;19.70;96700.00;;;;5000970;28;20190;-83
2022/09/10 07:54:43;;;;;;;1.67;1.57;;;18.00;99.90;19.50;96710.00;;;;4996592;28;20202;-85
2022/09/10 07:57:38;;;;;;;1.93;1.33;;;18.00;99.90;19.40;96708.00;;;;4998590;28;20203;-85
2022/09/10 08:00:27;;;;;;;3.40;1.10;;;17.90;99.90;19.50;96696.00;;;;4996879;28;20227;-83
2022/09/10 08:03:19;;;;;;;1.27;1.13;;;17.90;99.90;19.80;96697.00;;;;4999718;28;20264;-84
2022/09/10 08:06:09;;;;;;;1.37;1.20;;;17.90;99.90;19.70;96713.00;;;;4991397;28;20206;-84
2022/09/10 08:08:58;;;;;;;4.10;1.67;;;18.00;99.90;19.50;96710.00;;;;4991610;28;20222;-84
2022/09/10 08:11:47;;;;;;;1.07;1.00;;;17.90;99.90;18.90;96706.00;;;;4994822;28;20207;-85
2022/09/10 08:14:37;;;;;;;3.47;1.37;;;17.90;99.90;18.70;96704.00;;;;4998964;28;20210;-84
2022/09/10 08:17:28;;;;;;;1.67;1.53;;;17.70;99.90;18.90;96700.00;;;;4998100;28;20217;-83
2022/09/10 08:20:17;;;;;;;2.97;1.73;;;17.60;99.90;18.80;96719.00;;;;4999570;28;20234;-85
2022/09/10 08:23:06;;;;;;;1.27;1.17;;;17.60;99.90;19.00;96706.00;;;;5001857;28;20206;-84
2022/09/10 08:25:55;;;;;;;2.00;1.03;;;17.60;99.90;19.50;96711.00;;;;5006502;28;20700;-85
2022/09/10 08:28:44;;;;;;;1.50;0.87;;;17.80;99.90;20.00;96710.00;;;;4986786;28;20244;-84
2022/09/10 08:31:34;;;;;;;0.80;0.80;;;18.00;99.90;20.40;96711.00;;;;4993548;28;20206;-85
2022/09/10 08:34:23;;;;;;;3.83;1.17;;;18.30;99.90;20.90;96707.00;;;;4972922;28;20246;-85
2022/09/10 08:37:12;;;;;;;1.53;0.80;;;18.60;99.90;20.70;96706.00;;;;4991050;28;20203;-85
2022/09/10 08:40:02;;;;;;;0.73;0.73;;;18.80;99.90;20.70;96701.00;;;;4996295;28;20712;-84
2022/09/10 08:42:52;;;;;;;2.00;0.70;;;19.00;99.90;21.30;96707.00;;;;4992702;28;20692;-85
2022/09/10 08:45:42;;;;;;;1.93;1.00;;;19.20;99.90;21.80;96701.00;;;;4996773;28;20281;-84
2022/09/10 08:48:36;;;;;;;2.23;0.90;;;19.40;99.90;22.20;96701.00;;;;4999896;28;20601;-84
2022/09/10 08:51:29;;;;;;;1.43;0.83;;;19.80;99.90;22.50;96695.00;;;;4999301;28;20210;-85
2022/09/10 08:54:24;;;;;;;2.63;0.70;;;20.10;99.90;22.70;96697.00;;;;4988032;28;20234;-85
2022/09/10 08:57:24;;;;;;;0.70;0.60;;;20.40;99.90;22.80;96693.00;;;;4988197;28;20214;-84
2022/09/10 09:00:18;;;;;;;1.03;0.73;;;20.60;99.90;22.90;96682.00;;;;4990155;28;20234;-85
2022/09/10 09:03:16;;;;;;;1.87;0.73;;;20.80;99.90;23.20;96701.00;;;;4993037;28;20291;-84
2022/09/10 09:06:20;;;;;;;1.77;0.77;;;20.90;99.90;23.40;96693.00;;;;4995232;28;20596;-84
2022/09/10 09:09:12;;;;;;;2.70;0.60;;;21.10;99.90;23.60;96691.00;;;;4996276;28;20221;-84
2022/09/10 09:12:14;;;;;;;0.83;0.63;;;21.30;99.90;23.30;96688.00;;;;4989104;28;20693;-85
2022/09/10 09:15:11;;;;;;;0.40;0.40;;;21.40;99.90;23.50;96686.00;;;;4990758;28;20207;-84
2022/09/10 09:18:15;;;;;;;1.20;0.40;;;21.50;99.90;24.10;96694.00;;;;4990636;28;20217;-85
2022/09/10 09:21:19;;;;;;;2.57;0.60;;;21.70;99.90;24.20;96700.00;;;;5013957;28;20229;-84
2022/09/10 09:24:23;;;;;;;0.47;0.47;;;22.00;99.90;24.40;96699.00;;;;5001661;28;20680;-85
2022/09/10 09:27:19;;;;;;;0.80;0.40;;;22.20;99.90;24.10;96697.00;;;;4992014;28;20195;-84
2022/09/10 09:30:17;;;;;;;0.70;0.70;;;22.30;99.90;24.20;96695.00;;;;4994964;28;20243;-85
2022/09/10 09:33:15;;;;;;;1.00;0.43;;;22.30;99.90;24.70;96687.00;;;;4993094;28;20210;-85
2022/09/10 09:36:05;;;;;;;0.83;0.50;;;22.50;99.90;24.90;96679.00;;;;4994754;28;20713;-85
2022/09/10 09:38:56;;;;;;;0.60;0.50;;;22.60;99.90;23.80;96683.00;;;;4992297;28;20226;-86
2022/09/10 09:41:57;;;;;;;0.50;0.50;;;22.70;99.40;24.90;96687.00;;;;4994731;28;20269;-86
2022/09/10 09:44:53;;;;;;;1.13;0.70;;;22.70;99.90;25.20;96681.00;;;;4993417;28;20695;-85
2022/09/10 09:47:48;;;;;;;1.00;0.40;;;22.90;99.50;25.80;96683.00;;;;4989199;28;20198;-86
2022/09/10 09:50:42;;;;;;;0.80;0.57;;;23.20;99.80;25.80;96680.00;;;;4993397;28;20391;-84
2022/09/10 09:53:31;;;;;;;16.10;2.97;;;23.50;99.40;26.20;96673.00;;;;4994071;28;20200;-87
2022/09/10 09:56:28;;;;;;;0.93;0.50;;;23.80;98.30;26.90;96678.00;;;;4988998;28;20200;-87
2022/09/10 09:59:27;;;;;;;0.30;0.30;;;24.10;98.50;27.00;96675.00;;;;4992065;28;20224;-86
2022/09/10 10:02:20;;;;;;;1.77;0.50;;;24.40;96.70;26.30;96668.00;;;;4991462;28;21551;-87
2022/09/10 10:05:24;;;;;;;0.33;0.33;;;24.70;94.40;26.10;96678.00;;;;4990918;28;20205;-87
2022/09/10 10:08:33;;;;;;;0.93;0.67;;;24.60;94.60;26.90;96672.00;;;;5082051;22;20294;-73
2022/09/10 10:11:39;;;;;;;0.93;0.60;;;24.60;94.90;27.70;96673.00;;;;5081012;28;20200;-73
2022/09/10 10:14:38;;;;;;;0.50;0.37;;;24.90;94.80;27.80;96667.00;;;;5075592;28;20236;-72
2022/09/10 10:17:37;;;;;;;0.67;0.67;;;25.20;93.90;27.40;96659.00;;;;5077750;28;20226;-72
2022/09/10 10:20:40;;;;;;;0.40;0.40;;;25.30;92.60;28.10;96682.00;;;;5078674;28;20196;-72
2022/09/10 10:23:35;;;;;;;1.80;0.60;;;25.50;91.50;27.60;96699.00;;;;5075817;28;20184;-73
2022/09/10 10:26:31;;;;;;;0.67;0.43;;;25.50;91.00;27.40;96650.00;;;;5078855;28;20202;-72
2022/09/10 10:29:21;;;;;;;1.53;0.40;;;25.40;90.70;26.80;96645.00;;;;5080999;28;20200;-72
2022/09/10 10:32:18;;;;;;;1.03;0.50;;;25.50;87.00;25.40;96635.00;;;;5079071;28;20208;-73
2022/09/10 10:35:34;;;;;;;0.70;0.50;;;25.00;84.90;26.60;96629.00;;;;5077483;28;20210;-72
2022/09/10 10:38:31;;;;;;;3.23;0.40;;;24.80;83.60;27.80;96631.00;;;;5077058;28;20240;-72
2022/09/10 10:41:54;;;;;;;0.60;0.50;;;25.00;90.00;26.30;96676.00;;;;5076490;28;20229;-72
2022/09/10 10:45:02;;;;;;;0.97;0.40;;;25.10;82.40;26.30;96636.00;;;;5079445;28;20270;-72
2022/09/10 10:47:56;;;;;;;1.67;0.50;;;24.70;86.40;26.00;96668.00;;;;5075353;28;20211;-72
2022/09/10 10:50:55;;;;;;;0.47;0.47;;;24.70;85.00;25.80;96659.00;;;;5075687;28;20210;-73
2022/09/10 10:54:11;;;;;;;1.43;0.73;;;24.40;84.10;25.10;96657.00;;;;5074368;28;20299;-73
2022/09/10 10:57:14;;;;;;;1.30;0.50;;;23.10;82.80;24.30;96654.00;;;;5081178;28;20209;-73
2022/09/10 11:00:08;;;;;;;2.57;0.50;;;23.60;82.90;24.60;96658.00;;;;5079893;28;20257;-73
2022/09/10 11:03:04;;;;;;;0.97;0.50;;;23.30;84.10;25.20;96657.00;;;;5081549;28;20219;-73
2022/09/10 11:05:59;;;;;;;0.80;0.77;;;23.30;87.10;26.10;96590.00;;;;5070322;28;20200;-72
2022/09/10 11:08:54;;;;;;;1.33;0.50;;;23.50;89.50;28.20;96602.00;;;;5073690;28;20289;-72
2022/09/10 11:11:52;;;;;;;1.07;0.33;;;24.30;90.90;27.10;96588.00;;;;5076809;28;20707;-73
2022/09/10 11:14:48;;;;;;;0.30;0.30;;;24.90;86.40;26.80;96648.00;;;;5074326;28;20208;-72
2022/09/10 11:17:46;;;;;;;0.57;0.40;;;25.10;82.20;26.70;96586.00;;;;5077333;28;20220;-72
2022/09/10 11:20:42;;;;;;;0.60;0.43;;;25.20;82.40;27.30;96604.00;;;;5077112;28;20194;-74
2022/09/10 11:23:36;;;;;;;2.00;0.70;;;25.40;82.10;28.10;96652.00;;;;5082948;28;20752;-74
2022/09/10 11:26:33;;;;;;;1.60;0.40;;;25.80;80.30;27.30;96649.00;;;;5073131;28;20700;-73
2022/09/10 11:29:34;;;;;;;0.90;0.30;;;25.70;77.80;27.50;96584.00;;;;5078637;28;20603;-73
2022/09/10 11:32:33;;;;;;;0.43;0.40;;;25.60;77.60;29.40;96580.00;;;;5086085;28;20204;-72
2022/09/10 11:35:26;;;;;;;0.50;0.30;;;26.20;80.60;28.10;96594.00;;;;5083351;28;20685;-73
2022/09/10 11:38:23;;;;;;;1.47;0.40;;;26.40;76.30;29.80;96582.00;;;;5087326;28;20691;-74
2022/09/10 11:41:22;;;;;;;1.03;0.40;;;26.80;78.20;30.40;96581.00;;;;5078830;28;20229;-73
2022/09/10 11:44:37;;;;;;;0.40;0.30;;;27.40;73.20;29.00;96566.00;;;;5081224;28;20227;-74
2022/09/10 11:47:33;;;;;;;0.57;0.50;;;27.70;70.40;30.90;96587.00;;;;5077315;28;20218;-73
2022/09/10 11:50:28;;;;;;;1.23;0.40;;;27.90;70.80;29.40;96577.00;;;;5079303;28;20213;-72
2022/09/10 11:53:22;;;;;;;0.30;0.30;;;27.90;67.00;28.40;96616.00;;;;5079061;28;20676;-73
2022/09/10 11:56:29;;;;;;;0.53;0.40;;;27.70;64.10;26.70;96614.00;;;;5078209;28;20194;-73
2022/09/10 11:59:38;;;;;;;1.17;0.60;;;26.90;63.90;27.60;96621.00;;;;5082451;28;20197;-73
2022/09/10 12:03:08;;;;;;;0.43;0.30;;;26.30;67.80;28.70;96626.00;;;;5069456;28;20302;-73
2022/09/10 12:06:05;;;;;;;0.40;0.40;;;26.30;71.10;28.20;96636.00;;;;5077331;28;20206;-74
2022/09/10 12:09:08;;;;;;;1.60;0.60;;;26.30;71.10;27.60;96651.00;;;;5076294;28;20934;-74
2022/09/10 12:12:05;;;;;;;1.07;0.40;;;26.20;70.70;26.60;96647.00;;;;5075102;28;20237;-74
2022/09/10 12:14:54;;;;;;;1.03;0.33;;;25.80;68.70;26.30;96659.00;;;;5078695;28;20572;-73
2022/09/10 12:17:50;;;;;;;4.63;0.70;;;25.40;71.20;25.80;96649.00;;;;5080392;28;20631;-74
2022/09/10 12:20:48;;;;;;;0.60;0.30;;;25.10;81.30;24.30;96653.00;;;;5080500;28;20613;-74
2022/09/10 12:23:40;;;;;;;5.50;0.77;;;24.40;87.60;23.70;96654.00;;;;5082022;28;20698;-74
2022/09/10 12:26:29;;;;;;;2.27;0.80;;;23.80;88.20;23.20;96659.00;;;;5082479;28;20205;-74
2022/09/10 12:29:33;;;;;;;0.30;0.30;;;23.10;97.20;22.60;96656.00;;;;5079520;28;20195;-74
2022/09/10 12:32:31;;;;;;;0.30;0.30;;;22.40;99.10;22.20;96648.00;;;;5078466;28;20206;-75
2022/09/10 12:35:45;;;;;;;0.70;0.47;;;21.80;99.90;21.80;96662.00;;;;5083993;28;20199;-74
2022/09/10 12:38:55;;;;;;;0.80;0.30;;;21.20;99.90;21.30;96672.00;;;;5076991;28;20223;-75
2022/09/10 12:42:00;;;;;;;1.60;0.40;;;20.60;99.90;20.90;96681.00;;;;5078117;28;20220;-73
2022/09/10 12:44:50;;;;;;;1.07;0.50;;;20.20;99.90;20.60;96678.00;;;;5078137;28;20195;-73
2022/09/10 12:47:49;;;;;;;1.03;0.40;;;19.80;99.90;19.80;96682.00;;;;5080372;28;20256;-74
2022/09/10 12:50:45;;;;;;;0.43;0.43;;;19.40;99.90;20.20;96664.00;;;;5079603;28;20206;-74
2022/09/10 12:54:06;;;;;;;1.73;0.60;;;19.10;99.90;20.90;96649.00;;;;5080273;28;20214;-75